createdAt,value
2022-11-17T00:00:47.842Z,1001.04
2022-11-17T00:01:47.831Z,1001.09
2022-11-17T00:02:49.731Z,1001.06
2022-11-17T00:03:55.431Z,1001.12
2022-11-17T00:04:47.815Z,1001.08
2022-11-17T00:05:47.792Z,1001.02
2022-11-17T00:06:47.776Z,1001.04
2022-11-17T00:07:47.767Z,1001.09
2022-11-17T00:08:47.857Z,1001.06
2022-11-17T00:09:47.762Z,1001.09
2022-11-17T00:10:47.732Z,1001.00
2022-11-17T00:11:47.725Z,1001.10
2022-11-17T00:12:47.716Z,1001.04
2022-11-17T00:13:47.711Z,1001.10
2022-11-17T00:14:47.704Z,1000.97
2022-11-17T00:15:47.683Z,1001.38
2022-11-17T00:16:47.669Z,1001.16
2022-11-17T00:17:55.434Z,1000.91
2022-11-17T00:18:47.708Z,1001.13
2022-11-17T00:19:47.668Z,1000.95
2022-11-17T00:20:47.625Z,1001.05
2022-11-17T00:21:47.617Z,1001.37
2022-11-17T00:22:47.608Z,1001.07
2022-11-17T00:23:48.065Z,1000.89
2022-11-17T00:24:47.596Z,1000.99
2022-11-17T00:25:47.574Z,1001.14
2022-11-17T00:26:47.561Z,1000.97
2022-11-17T00:27:47.554Z,1001.15
2022-11-17T00:28:47.597Z,1000.99
2022-11-17T00:29:47.547Z,1001.08
2022-11-17T00:30:47.521Z,1001.00
2022-11-17T00:31:47.525Z,1000.90
2022-11-17T00:32:47.509Z,1000.99
2022-11-17T00:33:47.487Z,1001.06
2022-11-17T00:34:47.488Z,1001.13
2022-11-17T00:35:47.481Z,1001.04
2022-11-17T00:36:47.460Z,1001.01
2022-11-17T00:37:49.998Z,1001.07
2022-11-17T00:38:47.443Z,1001.03
2022-11-17T00:39:47.587Z,1000.91
2022-11-17T00:40:47.411Z,1000.82
2022-11-17T00:41:47.402Z,1000.97
2022-11-17T00:42:47.389Z,1000.82
2022-11-17T00:43:47.386Z,1000.84
2022-11-17T00:44:47.380Z,1000.99
2022-11-17T00:45:47.358Z,1000.90
2022-11-17T00:46:47.345Z,1000.84
2022-11-17T00:47:47.339Z,1000.98
2022-11-17T00:48:47.323Z,1000.76
2022-11-17T00:49:47.326Z,1000.81
2022-11-17T00:50:47.302Z,1000.80
2022-11-17T00:51:47.409Z,1000.72
2022-11-17T00:52:47.284Z,1001.00
2022-11-17T00:53:47.275Z,1000.78
2022-11-17T00:54:47.273Z,1000.76
2022-11-17T00:55:47.283Z,1000.95
2022-11-17T00:56:47.245Z,1000.86
2022-11-17T00:57:47.234Z,1000.97
2022-11-17T00:58:47.217Z,1000.82
2022-11-17T00:59:47.222Z,1000.94
2022-11-17T01:00:47.198Z,1000.80
2022-11-17T01:01:47.320Z,1001.00
2022-11-17T01:02:47.178Z,1000.85
2022-11-17T01:03:47.258Z,1000.88
2022-11-17T01:04:47.183Z,1000.87
2022-11-17T01:05:47.147Z,1000.98
2022-11-17T01:06:47.135Z,1000.78
2022-11-17T01:07:47.231Z,1000.87
2022-11-17T01:08:54.966Z,1000.85
2022-11-17T01:09:47.114Z,1000.90
2022-11-17T01:10:47.099Z,1000.89
2022-11-17T01:11:47.080Z,1000.87
2022-11-17T01:12:47.068Z,1000.84
2022-11-17T01:13:47.170Z,1000.98
2022-11-17T01:14:47.065Z,1000.85
2022-11-17T01:15:47.039Z,1000.97
2022-11-17T01:16:47.027Z,1000.87
2022-11-17T01:17:47.017Z,1000.83
2022-11-17T01:18:47.087Z,1000.78
2022-11-17T01:19:47.011Z,1000.76
2022-11-17T01:20:46.984Z,1000.79
2022-11-17T01:21:46.979Z,1000.87
2022-11-17T01:22:46.962Z,1001.02
2022-11-17T01:23:55.096Z,1000.70
2022-11-17T01:24:53.999Z,1000.81
2022-11-17T01:25:46.933Z,1000.78
2022-11-17T01:26:46.918Z,1000.98
2022-11-17T01:27:46.906Z,1000.75
2022-11-17T01:28:46.990Z,1000.88
2022-11-17T01:29:46.895Z,1000.79
2022-11-17T01:30:46.874Z,1000.83
2022-11-17T01:31:46.863Z,1000.71
2022-11-17T01:33:47.475Z,1000.65
2022-11-17T01:34:47.474Z,1000.71
2022-11-17T01:35:47.446Z,1000.69
2022-11-17T01:36:47.433Z,1000.69
2022-11-17T01:37:47.424Z,1000.65
2022-11-17T01:38:47.412Z,1000.81
2022-11-17T01:39:47.546Z,1000.70
2022-11-17T01:40:47.393Z,1000.68
2022-11-17T01:41:47.382Z,1000.53
2022-11-17T01:42:47.368Z,1000.58
2022-11-17T01:43:47.363Z,1000.66
2022-11-17T01:44:47.358Z,1000.60
2022-11-17T01:45:47.340Z,1000.50
2022-11-17T01:46:47.325Z,1000.47
2022-11-17T01:47:47.326Z,1000.66
2022-11-17T01:48:47.307Z,1000.75
2022-11-17T01:49:47.309Z,1000.63
2022-11-17T01:50:47.284Z,1000.60
2022-11-17T01:51:47.273Z,1000.49
2022-11-17T01:52:47.266Z,1000.57
2022-11-17T01:53:47.255Z,1000.42
2022-11-17T01:54:47.254Z,1000.45
2022-11-17T01:55:47.254Z,1000.46
2022-11-17T01:56:47.220Z,1000.53
2022-11-17T01:57:47.208Z,1000.40
2022-11-17T01:58:47.197Z,1000.61
2022-11-17T01:59:47.202Z,1000.41
2022-11-17T02:00:47.179Z,1000.42
2022-11-17T02:01:47.228Z,1000.41
2022-11-17T02:02:47.156Z,1000.61
2022-11-17T02:03:55.066Z,1000.40
2022-11-17T02:04:47.141Z,1000.41
2022-11-17T02:05:47.123Z,1000.44
2022-11-17T02:06:47.106Z,1000.67
2022-11-17T02:08:48.609Z,1000.60
2022-11-17T02:09:55.657Z,1000.53
2022-11-17T02:10:51.591Z,1000.58
2022-11-17T02:11:48.694Z,1000.55
2022-11-17T02:12:48.565Z,1000.45
2022-11-17T02:13:48.557Z,1000.52
2022-11-17T02:14:48.560Z,1000.54
2022-11-17T02:15:48.538Z,1000.53
2022-11-17T02:16:48.525Z,1000.52
2022-11-17T02:17:48.515Z,1000.52
2022-11-17T02:18:48.502Z,1000.44
2022-11-17T02:19:48.505Z,1000.50
2022-11-17T02:20:48.482Z,1000.52
2022-11-17T02:21:56.234Z,1000.46
2022-11-17T02:22:48.468Z,1000.55
2022-11-17T02:23:48.454Z,1000.46
2022-11-17T02:24:48.446Z,1000.55
2022-11-17T02:25:48.449Z,1000.39
2022-11-17T02:26:48.423Z,1000.46
2022-11-17T02:27:48.528Z,1000.43
2022-11-17T02:28:48.398Z,1000.46
2022-11-17T02:29:48.391Z,1000.42
2022-11-17T02:30:48.391Z,1000.48
2022-11-17T02:31:48.368Z,1000.48
2022-11-17T02:32:48.360Z,1000.43
2022-11-17T02:33:48.348Z,1000.46
2022-11-17T02:34:48.336Z,1000.43
2022-11-17T02:35:48.338Z,1000.38
2022-11-17T02:36:48.320Z,1000.37
2022-11-17T02:37:48.305Z,1000.35
2022-11-17T02:38:56.257Z,1000.36
2022-11-17T02:39:48.288Z,1000.35
2022-11-17T02:40:48.284Z,1000.43
2022-11-17T02:41:48.261Z,1000.38
2022-11-17T02:42:48.248Z,1000.31
2022-11-17T02:43:48.358Z,1000.38
2022-11-17T02:44:48.226Z,1000.29
2022-11-17T02:45:48.233Z,1000.26
2022-11-17T02:46:48.205Z,1000.35
2022-11-17T02:47:48.196Z,1000.38
2022-11-17T02:48:48.181Z,1000.28
2022-11-17T02:49:48.172Z,1000.32
2022-11-17T02:50:48.175Z,1000.25
2022-11-17T02:51:55.781Z,1000.18
2022-11-17T02:52:48.143Z,1000.13
2022-11-17T02:53:48.136Z,1000.31
2022-11-17T02:54:48.127Z,1000.13
2022-11-17T02:55:48.128Z,1000.11
2022-11-17T02:56:48.099Z,1000.18
2022-11-17T02:57:48.092Z,1000.24
2022-11-17T02:58:48.079Z,1000.11
2022-11-17T02:59:48.185Z,1000.01
2022-11-17T03:00:48.075Z,1000.03
2022-11-17T03:01:48.145Z,1000.07
2022-11-17T03:02:48.047Z,1000.05
2022-11-17T03:03:48.034Z,999.98
2022-11-17T03:04:48.015Z,1000.07
2022-11-17T03:05:48.025Z,1000.03
2022-11-17T03:06:47.992Z,1000.03
2022-11-17T03:07:47.986Z,1000.00
2022-11-17T03:08:47.975Z,1000.02
2022-11-17T03:09:47.964Z,1000.05
2022-11-17T03:10:47.965Z,1000.12
2022-11-17T03:11:47.940Z,1000.02
2022-11-17T03:12:47.932Z,1000.19
2022-11-17T03:13:47.920Z,1000.09
2022-11-17T03:14:47.907Z,1000.08
2022-11-17T03:15:48.026Z,1000.05
2022-11-17T03:16:47.885Z,1000.16
2022-11-17T03:17:47.876Z,1000.03
2022-11-17T03:18:47.871Z,1000.05
2022-11-17T03:19:47.860Z,1000.04
2022-11-17T03:20:47.857Z,1000.07
2022-11-17T03:21:47.834Z,1000.04
2022-11-17T03:22:47.821Z,1000.03
2022-11-17T03:23:47.815Z,1000.00
2022-11-17T03:24:47.801Z,1000.00
2022-11-17T03:25:47.805Z,999.98
2022-11-17T03:26:47.788Z,999.95
2022-11-17T03:27:47.780Z,999.97
2022-11-17T03:28:47.766Z,999.99
2022-11-17T03:29:47.753Z,999.95
2022-11-17T03:30:47.754Z,999.95
2022-11-17T03:31:47.840Z,1000.02
2022-11-17T03:32:47.715Z,1000.00
2022-11-17T03:33:47.709Z,1000.00
2022-11-17T03:34:47.693Z,1000.10
2022-11-17T03:35:50.666Z,1000.08
2022-11-17T03:36:47.671Z,1000.02
2022-11-17T03:37:47.670Z,1000.06
2022-11-17T03:38:47.651Z,1000.06
2022-11-17T03:39:47.648Z,1000.02
2022-11-17T03:40:47.652Z,1000.09
2022-11-17T03:41:47.624Z,1000.05
2022-11-17T03:42:47.608Z,1000.07
2022-11-17T03:43:47.599Z,1000.07
2022-11-17T03:44:47.590Z,1000.04
2022-11-17T03:45:47.593Z,1000.00
2022-11-17T03:46:47.568Z,1000.01
2022-11-17T03:47:47.573Z,999.98
2022-11-17T03:48:47.544Z,1000.04
2022-11-17T03:49:47.537Z,999.89
2022-11-17T03:50:47.531Z,999.93
2022-11-17T03:51:47.514Z,999.93
2022-11-17T03:52:47.500Z,999.97
2022-11-17T03:53:47.493Z,999.91
2022-11-17T03:54:47.479Z,999.99
2022-11-17T03:55:47.482Z,999.99
2022-11-17T03:56:47.459Z,1000.04
2022-11-17T03:57:47.451Z,999.96
2022-11-17T03:58:47.436Z,999.92
2022-11-17T03:59:47.433Z,999.94
2022-11-17T04:00:47.426Z,999.93
2022-11-17T04:01:47.526Z,999.93
2022-11-17T04:02:47.393Z,999.93
2022-11-17T04:03:47.408Z,999.94
2022-11-17T04:04:47.373Z,999.93
2022-11-17T04:05:47.375Z,999.89
2022-11-17T04:06:47.351Z,999.92
2022-11-17T04:07:47.345Z,999.88
2022-11-17T04:08:47.330Z,999.88
2022-11-17T04:09:47.323Z,999.93
2022-11-17T04:10:47.319Z,999.89
2022-11-17T04:11:47.301Z,999.86
2022-11-17T04:12:47.291Z,999.89
2022-11-17T04:13:47.279Z,999.92
2022-11-17T04:14:47.269Z,999.83
2022-11-17T04:15:47.272Z,999.95
2022-11-17T04:16:47.249Z,999.85
2022-11-17T04:17:47.234Z,999.85
2022-11-17T04:18:47.226Z,999.81
2022-11-17T04:19:47.229Z,999.78
2022-11-17T04:20:47.213Z,999.81
2022-11-17T04:21:47.194Z,999.79
2022-11-17T04:22:47.178Z,999.73
2022-11-17T04:23:47.173Z,999.77
2022-11-17T04:24:47.160Z,999.72
2022-11-17T04:25:47.163Z,999.75
2022-11-17T04:26:47.138Z,999.77
2022-11-17T04:27:47.125Z,999.67
2022-11-17T04:28:47.117Z,999.75
2022-11-17T04:29:47.108Z,999.80
2022-11-17T04:30:47.104Z,999.72
2022-11-17T04:31:47.085Z,999.66
2022-11-17T04:32:47.076Z,999.73
2022-11-17T04:33:47.127Z,999.66
2022-11-17T04:34:47.065Z,999.71
2022-11-17T04:35:47.087Z,999.75
2022-11-17T04:36:47.035Z,999.76
2022-11-17T04:37:47.028Z,999.72
2022-11-17T04:38:47.025Z,999.71
2022-11-17T04:39:47.020Z,999.70
2022-11-17T04:40:46.999Z,999.64
2022-11-17T04:41:46.994Z,999.66
2022-11-17T04:42:47.000Z,999.65
2022-11-17T04:43:46.965Z,999.68
2022-11-17T04:44:46.992Z,999.70
2022-11-17T04:45:46.962Z,999.89
2022-11-17T04:46:46.975Z,999.67
2022-11-17T04:47:46.947Z,999.70
2022-11-17T04:48:46.932Z,999.68
2022-11-17T04:49:46.920Z,999.69
2022-11-17T04:50:46.893Z,999.62
2022-11-17T04:51:47.026Z,999.65
2022-11-17T04:52:46.871Z,999.62
2022-11-17T04:53:46.856Z,999.64
2022-11-17T04:54:46.950Z,999.64
2022-11-17T04:55:46.855Z,999.67
2022-11-17T04:56:46.847Z,999.59
2022-11-17T04:57:46.815Z,999.56
2022-11-17T04:58:46.794Z,999.56
2022-11-17T04:59:46.800Z,999.65
2022-11-17T05:00:46.949Z,999.64
2022-11-17T05:01:46.829Z,999.61
2022-11-17T05:02:46.771Z,999.54
2022-11-17T05:03:46.799Z,999.62
2022-11-17T05:04:46.751Z,999.59
2022-11-17T05:05:46.744Z,999.60
2022-11-17T05:06:46.739Z,999.59
2022-11-17T05:07:46.722Z,999.55
2022-11-17T05:08:46.742Z,999.63
2022-11-17T05:09:46.748Z,999.53
2022-11-17T05:10:46.840Z,999.58
2022-11-17T05:11:46.657Z,999.58
2022-11-17T05:12:46.662Z,999.53
2022-11-17T05:13:46.640Z,999.67
2022-11-17T05:14:46.628Z,999.74
2022-11-17T05:15:46.636Z,999.67
2022-11-17T05:16:46.608Z,999.53
2022-11-17T05:17:46.595Z,999.52
2022-11-17T05:18:46.675Z,999.54
2022-11-17T05:19:46.609Z,999.68
2022-11-17T05:20:46.574Z,999.47
2022-11-17T05:21:46.568Z,999.47
2022-11-17T05:22:46.603Z,999.47
2022-11-17T05:23:46.561Z,999.53
2022-11-17T05:24:46.540Z,999.51
2022-11-17T05:25:46.610Z,999.45
2022-11-17T05:26:46.556Z,999.48
2022-11-17T05:27:46.485Z,999.37
2022-11-17T05:28:46.631Z,999.38
2022-11-17T05:29:46.467Z,999.40
2022-11-17T05:30:46.465Z,999.33
2022-11-17T05:31:46.441Z,999.35
2022-11-17T05:32:46.473Z,999.41
2022-11-17T05:33:46.426Z,999.41
2022-11-17T05:34:46.450Z,999.29
2022-11-17T05:35:46.454Z,999.36
2022-11-17T05:36:46.411Z,999.21
2022-11-17T05:37:46.377Z,999.36
2022-11-17T05:38:46.365Z,999.24
2022-11-17T05:39:46.517Z,999.16
2022-11-17T05:40:46.425Z,999.23
2022-11-17T05:41:46.349Z,999.19
2022-11-17T05:42:46.333Z,999.22
2022-11-17T05:43:46.321Z,999.16
2022-11-17T05:44:46.340Z,999.21
2022-11-17T05:45:46.354Z,999.16
2022-11-17T05:46:46.364Z,999.19
2022-11-17T05:47:46.279Z,999.22
2022-11-17T05:48:46.268Z,999.21
2022-11-17T05:49:46.276Z,999.17
2022-11-17T05:50:46.304Z,999.31
2022-11-17T05:51:51.315Z,999.22
2022-11-17T05:52:47.227Z,999.24
2022-11-17T05:53:46.221Z,999.18
2022-11-17T05:54:46.212Z,999.16
2022-11-17T05:55:46.315Z,999.18
2022-11-17T05:56:46.196Z,999.19
2022-11-17T05:57:46.176Z,999.15
2022-11-17T05:58:46.165Z,999.19
2022-11-17T05:59:46.145Z,999.24
2022-11-17T06:00:46.150Z,999.25
2022-11-17T06:01:46.120Z,999.27
2022-11-17T06:02:46.112Z,999.12
2022-11-17T06:03:46.220Z,999.24
2022-11-17T06:04:46.090Z,999.30
2022-11-17T06:05:46.093Z,999.24
2022-11-17T06:06:46.065Z,999.31
2022-11-17T06:07:46.059Z,999.26
2022-11-17T06:08:46.045Z,999.24
2022-11-17T06:09:46.042Z,999.20
2022-11-17T06:10:46.040Z,999.19
2022-11-17T06:11:46.123Z,999.26
2022-11-17T06:12:46.004Z,999.25
2022-11-17T06:13:45.991Z,999.28
2022-11-17T06:14:45.980Z,999.29
2022-11-17T06:15:45.983Z,999.17
2022-11-17T06:16:45.971Z,999.22
2022-11-17T06:17:45.951Z,999.22
2022-11-17T06:18:45.964Z,999.14
2022-11-17T06:19:45.947Z,999.17
2022-11-17T06:20:45.927Z,999.15
2022-11-17T06:22:10.562Z,999.20
2022-11-17T06:22:48.534Z,999.12
2022-11-17T06:23:45.883Z,999.17
2022-11-17T06:24:45.873Z,999.21
2022-11-17T06:25:45.873Z,999.21
2022-11-17T06:26:45.853Z,999.12
2022-11-17T06:27:45.950Z,999.20
2022-11-17T06:28:45.835Z,999.17
2022-11-17T06:29:45.820Z,999.18
2022-11-17T06:30:45.823Z,999.09
2022-11-17T06:31:45.849Z,999.07
2022-11-17T06:32:45.789Z,999.03
2022-11-17T06:33:45.777Z,999.11
2022-11-17T06:34:49.092Z,999.13
2022-11-17T06:35:46.775Z,999.09
2022-11-17T06:36:45.747Z,999.11
2022-11-17T06:37:45.792Z,999.15
2022-11-17T06:38:45.723Z,999.21
2022-11-17T06:39:45.729Z,999.19
2022-11-17T06:40:45.711Z,999.21
2022-11-17T06:41:45.694Z,999.06
2022-11-17T06:42:45.680Z,999.06
2022-11-17T06:43:45.790Z,999.17
2022-11-17T06:44:45.660Z,999.05
2022-11-17T06:45:45.685Z,998.99
2022-11-17T06:46:48.994Z,998.98
2022-11-17T06:47:45.626Z,998.96
2022-11-17T06:48:45.615Z,998.99
2022-11-17T06:49:45.603Z,999.00
2022-11-17T06:50:45.608Z,998.89
2022-11-17T06:51:45.808Z,999.01
2022-11-17T06:52:45.574Z,998.89
2022-11-17T06:53:45.560Z,998.90
2022-11-17T06:54:45.550Z,998.90
2022-11-17T06:55:45.567Z,998.93
2022-11-17T06:56:45.535Z,998.78
2022-11-17T06:57:50.334Z,998.85
2022-11-17T06:58:46.511Z,998.82
2022-11-17T06:59:45.610Z,998.87
2022-11-17T07:00:45.530Z,998.94
2022-11-17T07:01:45.490Z,998.85
2022-11-17T07:02:45.470Z,998.81
2022-11-17T07:03:45.459Z,998.92
2022-11-17T07:04:45.462Z,998.90
2022-11-17T07:05:45.590Z,998.76
2022-11-17T07:06:45.439Z,998.72
2022-11-17T07:07:45.425Z,998.69
2022-11-17T07:08:45.403Z,998.75
2022-11-17T07:09:45.393Z,998.76
2022-11-17T07:10:49.351Z,998.92
2022-11-17T07:11:45.382Z,998.84
2022-11-17T07:12:45.361Z,998.75
2022-11-17T07:13:45.347Z,998.67
2022-11-17T07:14:45.337Z,998.83
2022-11-17T07:15:45.442Z,998.71
2022-11-17T07:16:45.330Z,998.70
2022-11-17T07:17:45.308Z,998.95
2022-11-17T07:18:45.297Z,998.80
2022-11-17T07:19:45.312Z,998.64
2022-11-17T07:20:45.276Z,998.66
2022-11-17T07:21:45.281Z,998.62
2022-11-17T07:22:45.290Z,998.74
2022-11-17T07:23:45.238Z,998.73
2022-11-17T07:24:45.234Z,998.85
2022-11-17T07:25:45.262Z,998.70
2022-11-17T07:26:45.221Z,998.78
2022-11-17T07:27:45.198Z,998.73
2022-11-17T07:28:45.191Z,998.67
2022-11-17T07:29:45.175Z,998.77
2022-11-17T07:30:45.185Z,998.70
2022-11-17T07:31:45.250Z,998.69
2022-11-17T07:32:45.146Z,998.77
2022-11-17T07:33:45.132Z,998.80
2022-11-17T07:34:45.130Z,998.85
2022-11-17T07:35:45.113Z,998.82
2022-11-17T07:36:45.113Z,998.92
2022-11-17T07:37:45.092Z,998.81
2022-11-17T07:38:45.095Z,998.79
2022-11-17T07:39:45.156Z,998.91
2022-11-17T07:40:45.060Z,998.78
2022-11-17T07:41:45.062Z,998.89
2022-11-17T07:42:45.043Z,998.90
2022-11-17T07:43:45.031Z,998.94
2022-11-17T07:44:45.024Z,998.99
2022-11-17T07:45:45.006Z,998.92
2022-11-17T07:46:45.009Z,998.85
2022-11-17T07:47:45.105Z,998.81
2022-11-17T07:48:44.976Z,998.86
2022-11-17T07:49:44.987Z,998.84
2022-11-17T07:50:44.952Z,998.91
2022-11-17T07:51:44.956Z,998.85
2022-11-17T07:52:44.929Z,998.87
2022-11-17T07:53:44.917Z,998.96
2022-11-17T07:54:44.915Z,998.87
2022-11-17T07:55:44.896Z,999.03
2022-11-17T07:56:44.902Z,998.85
2022-11-17T07:57:44.875Z,998.90
2022-11-17T07:58:44.874Z,998.85
2022-11-17T07:59:44.857Z,998.95
2022-11-17T08:00:44.904Z,998.86
2022-11-17T08:01:44.891Z,998.76
2022-11-17T08:02:44.831Z,998.79
2022-11-17T08:03:44.963Z,998.83
2022-11-17T08:04:44.802Z,998.85
2022-11-17T08:05:44.797Z,998.76
2022-11-17T08:06:44.812Z,998.88
2022-11-17T08:07:44.816Z,998.85
2022-11-17T08:08:44.760Z,998.85
2022-11-17T08:09:44.746Z,998.83
2022-11-17T08:10:44.740Z,998.75
2022-11-17T08:11:44.734Z,998.69
2022-11-17T08:12:44.718Z,998.70
2022-11-17T08:13:44.709Z,998.74
2022-11-17T08:14:44.700Z,998.73
2022-11-17T08:15:44.684Z,998.69
2022-11-17T08:16:44.687Z,998.71
2022-11-17T08:17:44.674Z,998.73
2022-11-17T08:18:50.537Z,998.72
2022-11-17T08:19:45.753Z,998.72
2022-11-17T08:20:44.631Z,998.79
2022-11-17T08:21:44.635Z,998.83
2022-11-17T08:22:44.609Z,998.67
2022-11-17T08:23:44.598Z,998.79
2022-11-17T08:24:44.596Z,998.90
2022-11-17T08:25:44.581Z,998.72
2022-11-17T08:26:44.582Z,998.62
2022-11-17T08:27:44.576Z,998.57
2022-11-17T08:28:58.183Z,998.60
2022-11-17T08:29:45.531Z,998.54
2022-11-17T08:30:44.520Z,998.57
2022-11-17T08:31:44.570Z,998.76
2022-11-17T08:32:44.530Z,998.65
2022-11-17T08:33:44.487Z,998.60
2022-11-17T08:34:44.482Z,998.54
2022-11-17T08:35:44.481Z,998.63
2022-11-17T08:36:44.468Z,998.58
2022-11-17T08:37:44.447Z,998.67
2022-11-17T08:38:44.459Z,998.70
2022-11-17T08:39:44.424Z,998.60
2022-11-17T08:40:44.457Z,998.57
2022-11-17T08:41:44.415Z,998.51
2022-11-17T08:42:44.393Z,998.68
2022-11-17T08:43:44.382Z,998.58
2022-11-17T08:44:52.403Z,998.85
2022-11-17T08:45:44.361Z,998.66
2022-11-17T08:46:44.366Z,998.57
2022-11-17T08:47:44.336Z,998.54
2022-11-17T08:48:44.333Z,998.53
2022-11-17T08:49:44.317Z,998.75
2022-11-17T08:50:44.309Z,998.55
2022-11-17T08:51:44.358Z,998.59
2022-11-17T08:52:44.311Z,998.52
2022-11-17T08:53:44.277Z,998.54
2022-11-17T08:54:44.290Z,998.64
2022-11-17T08:55:44.321Z,998.58
2022-11-17T08:56:44.283Z,998.74
2022-11-17T08:58:48.299Z,998.64
2022-11-17T08:59:48.316Z,998.81
2022-11-17T09:00:48.325Z,998.63
2022-11-17T09:01:48.314Z,998.78
2022-11-17T09:02:48.258Z,998.72
2022-11-17T09:03:48.262Z,998.75
2022-11-17T09:04:48.230Z,998.62
2022-11-17T09:05:48.218Z,998.63
2022-11-17T09:06:48.340Z,998.65
2022-11-17T09:07:48.418Z,998.89
2022-11-17T09:08:48.224Z,998.75
2022-11-17T09:09:48.176Z,999.07
2022-11-17T09:10:48.170Z,998.73
2022-11-17T09:11:48.172Z,998.80
2022-11-17T09:12:48.146Z,998.89
2022-11-17T09:13:48.134Z,998.68
2022-11-17T09:14:48.126Z,998.77
2022-11-17T09:15:48.112Z,998.74
2022-11-17T09:16:48.126Z,998.76
2022-11-17T09:17:48.094Z,998.70
2022-11-17T09:18:48.087Z,998.74
2022-11-17T09:19:48.067Z,998.69
2022-11-17T09:20:48.065Z,998.79
2022-11-17T09:21:48.073Z,998.88
2022-11-17T09:22:48.304Z,998.89
2022-11-17T09:23:48.029Z,998.78
2022-11-17T09:24:48.018Z,998.70
2022-11-17T09:25:48.008Z,998.71
2022-11-17T09:26:47.995Z,998.76
2022-11-17T09:27:48.011Z,998.82
2022-11-17T09:28:48.238Z,998.93
2022-11-17T09:29:47.968Z,998.93
2022-11-17T09:30:47.953Z,998.80
2022-11-17T09:31:48.031Z,998.87
2022-11-17T09:32:47.953Z,998.90
2022-11-17T09:33:47.922Z,998.86
2022-11-17T09:34:48.004Z,998.78
2022-11-17T09:35:47.898Z,998.77
2022-11-17T09:36:47.891Z,998.85
2022-11-17T09:37:47.889Z,998.76
2022-11-17T09:38:47.994Z,998.76
2022-11-17T09:39:47.856Z,998.76
2022-11-17T09:40:47.878Z,998.77
2022-11-17T09:41:47.835Z,998.71
2022-11-17T09:42:47.839Z,998.71
2022-11-17T09:43:47.836Z,998.71
2022-11-17T09:44:47.803Z,998.69
2022-11-17T09:45:47.796Z,998.73
2022-11-17T09:46:47.785Z,998.78
2022-11-17T09:47:50.031Z,998.73
2022-11-17T09:48:55.747Z,998.58
2022-11-17T09:49:50.014Z,998.71
2022-11-17T09:50:48.746Z,998.84
2022-11-17T09:51:47.734Z,998.95
2022-11-17T09:52:47.742Z,998.70
2022-11-17T09:53:47.707Z,998.81
2022-11-17T09:54:47.712Z,998.63
2022-11-17T09:55:47.692Z,998.62
2022-11-17T09:56:47.682Z,998.64
2022-11-17T09:57:47.676Z,998.64
2022-11-17T09:58:47.658Z,998.59
2022-11-17T09:59:47.654Z,998.61
2022-11-17T10:00:47.633Z,998.63
2022-11-17T10:01:55.575Z,998.65
2022-11-17T10:02:47.625Z,998.75
2022-11-17T10:03:48.032Z,998.66
2022-11-17T10:04:47.595Z,998.76
2022-11-17T10:05:47.578Z,998.98
2022-11-17T10:06:47.569Z,998.72
2022-11-17T10:07:47.567Z,998.63
2022-11-17T10:08:47.549Z,998.64
2022-11-17T10:09:47.534Z,998.67
2022-11-17T10:10:47.644Z,998.57
2022-11-17T10:11:47.515Z,998.68
2022-11-17T10:12:47.523Z,998.67
2022-11-17T10:13:47.494Z,998.60
2022-11-17T10:14:47.486Z,998.61
2022-11-17T10:15:47.477Z,998.61
2022-11-17T10:16:47.461Z,998.63
2022-11-17T10:17:47.464Z,998.60
2022-11-17T10:18:54.974Z,998.57
2022-11-17T10:19:47.425Z,998.51
2022-11-17T10:20:47.418Z,998.51
2022-11-17T10:21:47.408Z,998.52
2022-11-17T10:23:57.284Z,998.45
2022-11-17T10:24:57.257Z,998.49
2022-11-17T10:25:57.262Z,998.49
2022-11-17T10:26:57.235Z,998.44
2022-11-17T10:27:57.260Z,998.51
2022-11-17T10:28:57.213Z,998.61
2022-11-17T10:29:57.200Z,998.48
2022-11-17T10:30:57.196Z,998.48
2022-11-17T10:31:57.185Z,998.61
2022-11-17T10:32:57.253Z,998.58
2022-11-17T10:33:57.237Z,998.48
2022-11-17T10:34:57.151Z,998.49
2022-11-17T10:35:57.135Z,998.40
2022-11-17T10:36:57.135Z,998.40
2022-11-17T10:38:04.175Z,998.38
2022-11-17T10:39:04.958Z,998.49
2022-11-17T10:40:04.954Z,998.34
2022-11-17T10:40:57.079Z,998.48
2022-11-17T10:41:57.082Z,998.40
2022-11-17T10:42:57.069Z,998.23
2022-11-17T10:43:57.048Z,998.34
2022-11-17T10:44:57.041Z,998.22
2022-11-17T10:45:57.022Z,998.20
2022-11-17T10:47:02.055Z,998.28
2022-11-17T10:47:58.010Z,998.34
2022-11-17T10:48:56.994Z,998.24
2022-11-17T10:49:56.984Z,998.44
2022-11-17T10:50:57.012Z,998.30
2022-11-17T10:51:56.961Z,998.25
2022-11-17T10:52:56.960Z,998.22
2022-11-17T10:54:04.951Z,998.24
2022-11-17T10:54:56.929Z,998.30
2022-11-17T10:55:56.927Z,998.29
2022-11-17T10:56:56.905Z,998.29
2022-11-17T10:57:56.924Z,998.24
2022-11-17T10:58:56.884Z,998.09
2022-11-17T10:59:57.475Z,998.20
2022-11-17T11:00:56.970Z,998.20
2022-11-17T11:01:56.852Z,998.19
2022-11-17T11:02:56.850Z,998.15
2022-11-17T11:03:56.838Z,998.01
2022-11-17T11:04:56.837Z,998.01
2022-11-17T11:05:56.809Z,998.17
2022-11-17T11:06:56.841Z,998.02
2022-11-17T11:07:56.800Z,998.06
2022-11-17T11:08:56.785Z,998.02
2022-11-17T11:09:56.763Z,997.90
2022-11-17T11:10:56.761Z,997.94
2022-11-17T11:11:56.761Z,997.97
2022-11-17T11:14:06.631Z,998.05
2022-11-17T11:15:06.598Z,998.11
2022-11-17T11:16:06.583Z,998.12
2022-11-17T11:17:06.576Z,998.04
2022-11-17T11:18:06.580Z,998.09
2022-11-17T11:19:06.556Z,998.15
2022-11-17T11:20:06.542Z,998.05
2022-11-17T11:21:06.533Z,997.91
2022-11-17T11:22:06.520Z,997.90
2022-11-17T11:23:06.665Z,998.02
2022-11-17T11:24:06.502Z,998.05
2022-11-17T11:25:06.486Z,998.18
2022-11-17T11:26:06.478Z,997.86
2022-11-17T11:27:06.509Z,997.88
2022-11-17T11:28:06.466Z,997.84
2022-11-17T11:29:06.448Z,997.87
2022-11-17T11:30:06.452Z,997.90
2022-11-17T11:31:06.429Z,997.90
2022-11-17T11:32:06.417Z,997.89
2022-11-17T11:33:06.418Z,997.88
2022-11-17T11:34:06.392Z,998.04
2022-11-17T11:35:06.382Z,997.78
2022-11-17T11:36:06.371Z,997.90
2022-11-17T11:37:06.374Z,997.84
2022-11-17T11:38:06.366Z,997.74
2022-11-17T11:39:06.337Z,997.84
2022-11-17T11:40:06.328Z,997.71
2022-11-17T11:41:06.320Z,998.06
2022-11-17T11:42:08.093Z,997.90
2022-11-17T11:43:13.361Z,997.71
2022-11-17T11:44:06.279Z,997.78
2022-11-17T11:45:06.287Z,997.67
2022-11-17T11:46:06.273Z,997.72
2022-11-17T11:47:06.250Z,997.70
2022-11-17T11:48:06.252Z,997.74
2022-11-17T11:49:06.230Z,997.60
2022-11-17T11:50:06.216Z,997.71
2022-11-17T11:51:06.207Z,997.84
2022-11-17T11:52:06.199Z,997.65
2022-11-17T11:53:06.196Z,997.61
2022-11-17T11:54:06.175Z,997.77
2022-11-17T11:55:06.163Z,997.55
2022-11-17T11:56:06.151Z,997.61
2022-11-17T11:57:13.774Z,997.63
2022-11-17T11:58:06.152Z,997.59
2022-11-17T11:59:06.125Z,997.65
2022-11-17T12:00:06.127Z,997.65
2022-11-17T12:01:06.101Z,997.71
2022-11-17T12:02:06.105Z,997.76
2022-11-17T12:03:06.134Z,997.74
2022-11-17T12:04:06.070Z,997.66
2022-11-17T12:05:06.062Z,997.66
2022-11-17T12:06:06.067Z,997.66
2022-11-17T12:07:06.155Z,997.65
2022-11-17T12:08:10.393Z,997.72
2022-11-17T12:09:06.023Z,997.54
2022-11-17T12:10:06.018Z,997.63
2022-11-17T12:11:05.995Z,997.59
2022-11-17T12:12:05.992Z,997.53
2022-11-17T12:13:06.004Z,997.62
2022-11-17T12:14:05.969Z,997.72
2022-11-17T12:15:05.953Z,997.67
2022-11-17T12:16:05.939Z,997.75
2022-11-17T12:17:05.927Z,997.61
2022-11-17T12:18:05.952Z,997.52
2022-11-17T12:19:05.910Z,997.85
2022-11-17T12:20:10.682Z,997.69
2022-11-17T12:21:06.888Z,997.67
2022-11-17T12:22:05.874Z,997.64
2022-11-17T12:23:05.890Z,997.58
2022-11-17T12:24:05.852Z,997.70
2022-11-17T12:25:05.845Z,997.77
2022-11-17T12:26:05.833Z,997.84
2022-11-17T12:27:05.820Z,997.71